sensor_id;sensor_type;location;lat;lon;timestamp;P1;durP1;ratioP1;P2;durP2;ratioP2
66609;SDS011;53468;48.276;14.416;2023-04-28T00:05:58;5.47;;;2.78;;
66609;SDS011;53468;48.276;14.416;2023-04-28T01:19:09;7.57;;;3.33;;
66609;SDS011;53468;48.276;14.416;2023-04-28T02:29:55;9.57;;;3.28;;
66609;SDS011;53468;48.276;14.416;2023-04-28T02:35:21;9.82;;;3.75;;
66609;SDS011;53468;48.276;14.416;2023-04-28T02:47:23;7.57;;;3.55;;
66609;SDS011;53468;48.276;14.416;2023-04-28T02:52:57;6.25;;;3.47;;
66609;SDS011;53468;48.276;14.416;2023-04-28T02:58:56;8.13;;;3.28;;
66609;SDS011;53468;48.276;14.416;2023-04-28T03:10:47;7.22;;;3.67;;
66609;SDS011;53468;48.276;14.416;2023-04-28T03:16:44;5.70;;;3.45;;
66609;SDS011;53468;48.276;14.416;2023-04-28T03:22:33;6.40;;;3.55;;
66609;SDS011;53468;48.276;14.416;2023-04-28T04:50:51;6.97;;;3.90;;
66609;SDS011;53468;48.276;14.416;2023-04-28T04:56:48;8.32;;;4.57;;
66609;SDS011;53468;48.276;14.416;2023-04-28T05:07:58;5.68;;;3.90;;
66609;SDS011;53468;48.276;14.416;2023-04-28T05:13:15;7.77;;;3.73;;
66609;SDS011;53468;48.276;14.416;2023-04-28T05:18:35;5.65;;;3.42;;
66609;SDS011;53468;48.276;14.416;2023-04-28T05:23:53;21.08;;;3.58;;
66609;SDS011;53468;48.276;14.416;2023-04-28T05:29:07;4.90;;;3.10;;
66609;SDS011;53468;48.276;14.416;2023-04-28T05:35:05;6.15;;;3.45;;
66609;SDS011;53468;48.276;14.416;2023-04-28T05:40:41;12.52;;;4.18;;
66609;SDS011;53468;48.276;14.416;2023-04-28T05:46:19;6.45;;;3.95;;
66609;SDS011;53468;48.276;14.416;2023-04-28T05:58:32;5.85;;;3.65;;
66609;SDS011;53468;48.276;14.416;2023-04-28T06:04:16;7.40;;;4.05;;
66609;SDS011;53468;48.276;14.416;2023-04-28T06:10:26;4.93;;;3.70;;
66609;SDS011;53468;48.276;14.416;2023-04-28T08:27:19;5.57;;;3.35;;
66609;SDS011;53468;48.276;14.416;2023-04-28T08:33:05;6.50;;;3.70;;
66609;SDS011;53468;48.276;14.416;2023-04-28T08:44:08;4.68;;;2.90;;
66609;SDS011;53468;48.276;14.416;2023-04-28T09:00:23;16.80;;;6.68;;
66609;SDS011;53468;48.276;14.416;2023-04-28T09:06:11;7.28;;;3.92;;
66609;SDS011;53468;48.276;14.416;2023-04-28T09:17:50;5.15;;;3.72;;
66609;SDS011;53468;48.276;14.416;2023-04-28T09:23:13;9.27;;;4.25;;
66609;SDS011;53468;48.276;14.416;2023-04-28T09:28:40;5.45;;;3.80;;
66609;SDS011;53468;48.276;14.416;2023-04-28T09:34:17;4.68;;;3.58;;
66609;SDS011;53468;48.276;14.416;2023-04-28T09:39:36;8.20;;;5.28;;
66609;SDS011;53468;48.276;14.416;2023-04-28T09:50:23;7.47;;;4.63;;
66609;SDS011;53468;48.276;14.416;2023-04-28T09:55:26;6.68;;;4.95;;
66609;SDS011;53468;48.276;14.416;2023-04-28T10:00:39;9.77;;;4.50;;
66609;SDS011;53468;48.276;14.416;2023-04-28T10:06:07;8.40;;;4.80;;
66609;SDS011;53468;48.276;14.416;2023-04-28T10:11:12;8.10;;;4.05;;
66609;SDS011;53468;48.276;14.416;2023-04-28T10:16:37;6.97;;;4.80;;
66609;SDS011;53468;48.276;14.416;2023-04-28T10:28:06;9.05;;;5.53;;
66609;SDS011;53468;48.276;14.416;2023-04-28T10:33:25;5.43;;;4.38;;
66609;SDS011;53468;48.276;14.416;2023-04-28T10:50:03;6.35;;;4.18;;
66609;SDS011;53468;48.276;14.416;2023-04-28T10:55:30;8.50;;;4.18;;
66609;SDS011;53468;48.276;14.416;2023-04-28T11:00:48;8.43;;;5.25;;
66609;SDS011;53468;48.276;14.416;2023-04-28T11:11:38;9.70;;;4.35;;
66609;SDS011;53468;48.276;14.416;2023-04-28T11:17:16;6.90;;;4.03;;
66609;SDS011;53468;48.276;14.416;2023-04-28T11:22:43;10.23;;;4.72;;
66609;SDS011;53468;48.276;14.416;2023-04-28T11:33:21;7.07;;;4.78;;
66609;SDS011;53468;48.276;14.416;2023-04-28T11:38:42;10.60;;;5.45;;
66609;SDS011;53468;48.276;14.416;2023-04-28T12:12:29;9.05;;;5.85;;
66609;SDS011;53468;48.276;14.416;2023-04-28T13:30:24;14.27;;;8.30;;
66609;SDS011;53468;48.276;14.416;2023-04-28T13:41:56;10.40;;;7.57;;
66609;SDS011;53468;48.276;14.416;2023-04-28T14:53:48;15.77;;;9.90;;
66609;SDS011;53468;48.276;14.416;2023-04-28T15:05:49;18.00;;;11.30;;
66609;SDS011;53468;48.276;14.416;2023-04-28T15:11:09;16.45;;;9.20;;
66609;SDS011;53468;48.276;14.416;2023-04-28T16:35:32;16.98;;;11.80;;
66609;SDS011;53468;48.276;14.416;2023-04-28T18:15:51;16.70;;;10.80;;
66609;SDS011;53468;48.276;14.416;2023-04-28T18:21:54;19.90;;;12.10;;
66609;SDS011;53468;48.276;14.416;2023-04-28T18:27:47;21.80;;;12.18;;
66609;SDS011;53468;48.276;14.416;2023-04-28T18:39:01;24.45;;;12.25;;
66609;SDS011;53468;48.276;14.416;2023-04-28T18:44:33;21.83;;;13.17;;
66609;SDS011;53468;48.276;14.416;2023-04-28T19:07:12;18.85;;;13.85;;
66609;SDS011;53468;48.276;14.416;2023-04-28T19:12:39;20.17;;;13.45;;
66609;SDS011;53468;48.276;14.416;2023-04-28T19:17:55;21.73;;;14.13;;
66609;SDS011;53468;48.276;14.416;2023-04-28T19:23:03;23.88;;;14.55;;
66609;SDS011;53468;48.276;14.416;2023-04-28T19:28:10;21.45;;;14.20;;
66609;SDS011;53468;48.276;14.416;2023-04-28T19:44:43;25.05;;;14.75;;
66609;SDS011;53468;48.276;14.416;2023-04-28T19:50:22;26.30;;;15.10;;
66609;SDS011;53468;48.276;14.416;2023-04-28T19:55:33;21.95;;;14.10;;
66609;SDS011;53468;48.276;14.416;2023-04-28T20:00:56;22.40;;;15.15;;
66609;SDS011;53468;48.276;14.416;2023-04-28T20:06:03;24.73;;;15.27;;
66609;SDS011;53468;48.276;14.416;2023-04-28T20:11:26;21.63;;;14.75;;
66609;SDS011;53468;48.276;14.416;2023-04-28T20:16:29;31.92;;;19.50;;
66609;SDS011;53468;48.276;14.416;2023-04-28T20:21:42;25.67;;;16.23;;
66609;SDS011;53468;48.276;14.416;2023-04-28T20:27:32;26.15;;;16.85;;
66609;SDS011;53468;48.276;14.416;2023-04-28T20:33:20;28.88;;;16.55;;
66609;SDS011;53468;48.276;14.416;2023-04-28T20:39:18;29.23;;;17.45;;
66609;SDS011;53468;48.276;14.416;2023-04-28T20:45:23;27.42;;;17.42;;
66609;SDS011;53468;48.276;14.416;2023-04-28T20:51:01;28.67;;;17.23;;
66609;SDS011;53468;48.276;14.416;2023-04-28T20:56:30;28.45;;;16.73;;
66609;SDS011;53468;48.276;14.416;2023-04-28T21:19:43;25.40;;;15.90;;
66609;SDS011;53468;48.276;14.416;2023-04-28T21:25:12;26.95;;;16.60;;
66609;SDS011;53468;48.276;14.416;2023-04-28T21:31:13;26.10;;;16.80;;
66609;SDS011;53468;48.276;14.416;2023-04-28T21:36:52;31.27;;;17.80;;
66609;SDS011;53468;48.276;14.416;2023-04-28T21:42:37;25.55;;;15.73;;
66609;SDS011;53468;48.276;14.416;2023-04-28T21:47:58;28.63;;;16.80;;
66609;SDS011;53468;48.276;14.416;2023-04-28T21:54:12;28.52;;;16.33;;
66609;SDS011;53468;48.276;14.416;2023-04-28T22:00:32;27.15;;;16.67;;
66609;SDS011;53468;48.276;14.416;2023-04-28T22:06:27;26.67;;;17.23;;
66609;SDS011;53468;48.276;14.416;2023-04-28T22:18:07;26.00;;;16.60;;
66609;SDS011;53468;48.276;14.416;2023-04-28T22:23:36;24.50;;;15.27;;
66609;SDS011;53468;48.276;14.416;2023-04-28T22:41:10;29.38;;;16.92;;
66609;SDS011;53468;48.276;14.416;2023-04-28T22:46:35;26.35;;;16.27;;
66609;SDS011;53468;48.276;14.416;2023-04-28T22:51:55;27.67;;;16.48;;
66609;SDS011;53468;48.276;14.416;2023-04-28T22:57:08;27.45;;;16.17;;
66609;SDS011;53468;48.276;14.416;2023-04-28T23:02:18;30.17;;;16.33;;
66609;SDS011;53468;48.276;14.416;2023-04-28T23:07:48;27.05;;;16.00;;
66609;SDS011;53468;48.276;14.416;2023-04-28T23:13:14;29.45;;;17.38;;
66609;SDS011;53468;48.276;14.416;2023-04-28T23:18:41;25.25;;;16.27;;
66609;SDS011;53468;48.276;14.416;2023-04-28T23:24:03;27.85;;;16.50;;
66609;SDS011;53468;48.276;14.416;2023-04-28T23:29:33;27.50;;;16.45;;
66609;SDS011;53468;48.276;14.416;2023-04-28T23:34:45;30.05;;;16.63;;
66609;SDS011;53468;48.276;14.416;2023-04-28T23:40:20;24.27;;;15.82;;
66609;SDS011;53468;48.276;14.416;2023-04-28T23:50:51;26.10;;;14.43;;
66609;SDS011;53468;48.276;14.416;2023-04-28T23:55:58;24.73;;;16.35;;
